sensor_id;sensor_type;location;lat;lon;timestamp;pressure;altitude;pressure_sealevel;temperature;humidity
6030;BME280;3043;42.682;23.376;2023-02-21T00:02:36;95347.75;;;6.04;100.00
6030;BME280;3043;42.682;23.376;2023-02-21T00:05:20;95344.28;;;6.08;100.00
6030;BME280;3043;42.682;23.376;2023-02-21T00:08:04;95340.91;;;5.97;100.00
6030;BME280;3043;42.682;23.376;2023-02-21T00:10:48;95350.31;;;5.98;100.00
6030;BME280;3043;42.682;23.376;2023-02-21T00:13:38;95345.19;;;6.04;100.00
6030;BME280;3043;42.682;23.376;2023-02-21T00:16:22;95351.19;;;6.00;100.00
6030;BME280;3043;42.682;23.376;2023-02-21T00:19:06;95351.19;;;5.97;100.00
6030;BME280;3043;42.682;23.376;2023-02-21T00:21:50;95350.34;;;5.92;100.00
6030;BME280;3043;42.682;23.376;2023-02-21T00:24:34;95349.47;;;5.90;100.00
6030;BME280;3043;42.682;23.376;2023-02-21T00:27:18;95342.63;;;5.86;100.00
6030;BME280;3043;42.682;23.376;2023-02-21T00:30:04;95334.03;;;5.78;100.00
6030;BME280;3043;42.682;23.376;2023-02-21T00:32:48;95331.47;;;5.69;100.00
6030;BME280;3043;42.682;23.376;2023-02-21T00:35:32;95337.50;;;5.68;100.00
6030;BME280;3043;42.682;23.376;2023-02-21T00:38:16;95341.75;;;5.69;100.00
6030;BME280;3043;42.682;23.376;2023-02-21T00:41:00;95327.22;;;5.65;100.00
6030;BME280;3043;42.682;23.376;2023-02-21T00:43:43;95333.22;;;5.70;100.00
6030;BME280;3043;42.682;23.376;2023-02-21T00:46:28;95332.34;;;5.71;100.00
6030;BME280;3043;42.682;23.376;2023-02-21T00:49:11;95323.78;;;5.72;100.00
6030;BME280;3043;42.682;23.376;2023-02-21T00:51:55;95316.94;;;5.68;100.00
6030;BME280;3043;42.682;23.376;2023-02-21T00:54:40;95306.66;;;5.69;100.00
6030;BME280;3043;42.682;23.376;2023-02-21T00:57:24;95304.97;;;5.67;100.00
6030;BME280;3043;42.682;23.376;2023-02-21T01:00:14;95299.84;;;5.67;100.00
6030;BME280;3043;42.682;23.376;2023-02-21T01:02:58;95299.84;;;5.67;100.00
6030;BME280;3043;42.682;23.376;2023-02-21T01:05:42;95290.38;;;5.73;100.00
6030;BME280;3043;42.682;23.376;2023-02-21T01:08:26;95292.13;;;5.86;100.00
6030;BME280;3043;42.682;23.376;2023-02-21T01:11:16;95279.28;;;5.91;100.00
6030;BME280;3043;42.682;23.376;2023-02-21T01:14:01;95272.41;;;5.90;100.00
6030;BME280;3043;42.682;23.376;2023-02-21T01:16:45;95286.13;;;5.86;100.00
6030;BME280;3043;42.682;23.376;2023-02-21T01:19:29;95269.00;;;5.92;100.00
6030;BME280;3043;42.682;23.376;2023-02-21T01:22:13;95265.56;;;5.90;100.00
6030;BME280;3043;42.682;23.376;2023-02-21T01:24:57;95262.13;;;5.96;100.00
6030;BME280;3043;42.682;23.376;2023-02-21T01:27:40;95251.88;;;5.87;100.00
6030;BME280;3043;42.682;23.376;2023-02-21T01:30:24;95254.41;;;5.97;100.00
6030;BME280;3043;42.682;23.376;2023-02-21T01:33:09;95254.34;;;6.09;100.00
6030;BME280;3043;42.682;23.376;2023-02-21T01:35:54;95256.91;;;6.14;100.00
6030;BME280;3043;42.682;23.376;2023-02-21T01:38:38;95251.78;;;6.08;100.00
6030;BME280;3043;42.682;23.376;2023-02-21T01:41:22;95250.97;;;6.01;100.00
6030;BME280;3043;42.682;23.376;2023-02-21T01:47:11;95252.72;;;5.87;100.00
6030;BME280;3043;42.682;23.376;2023-02-21T01:49:55;95250.16;;;5.80;100.00
6030;BME280;3043;42.682;23.376;2023-02-21T01:52:39;95247.59;;;5.75;100.00
6030;BME280;3043;42.682;23.376;2023-02-21T01:55:23;95238.19;;;5.76;100.00
6030;BME280;3043;42.682;23.376;2023-02-21T01:58:07;95234.78;;;5.65;100.00
6030;BME280;3043;42.682;23.376;2023-02-21T02:00:51;95227.06;;;5.69;100.00
6030;BME280;3043;42.682;23.376;2023-02-21T02:03:36;95235.59;;;5.79;100.00
6030;BME280;3043;42.682;23.376;2023-02-21T02:06:21;95231.31;;;5.79;100.00
6030;BME280;3043;42.682;23.376;2023-02-21T02:09:14;95214.19;;;5.81;100.00
6030;BME280;3043;42.682;23.376;2023-02-21T02:15:14;95222.78;;;5.88;100.00
6030;BME280;3043;42.682;23.376;2023-02-21T02:20:46;95212.50;;;5.79;100.00
6030;BME280;3043;42.682;23.376;2023-02-21T02:34:48;95207.38;;;5.73;100.00
6030;BME280;3043;42.682;23.376;2023-02-21T02:48:57;95201.22;;;6.19;100.00
6030;BME280;3043;42.682;23.376;2023-02-21T02:51:25;95188.34;;;6.25;100.00
6030;BME280;3043;42.682;23.376;2023-02-21T02:53:50;95190.06;;;6.29;100.00
6030;BME280;3043;42.682;23.376;2023-02-21T02:56:16;95196.03;;;6.28;100.00
6030;BME280;3043;42.682;23.376;2023-02-21T03:04:35;95193.41;;;6.37;100.00
6030;BME280;3043;42.682;23.376;2023-02-21T03:07:27;95196.88;;;6.33;100.00
6030;BME280;3043;42.682;23.376;2023-02-21T03:15:20;95202.06;;;6.24;100.00
6030;BME280;3043;42.682;23.376;2023-02-21T03:18:18;95198.63;;;6.22;100.00
6030;BME280;3043;42.682;23.376;2023-02-21T03:20:49;95203.78;;;6.22;100.00
6030;BME280;3043;42.682;23.376;2023-02-21T03:23:17;95195.28;;;6.08;100.00
6030;BME280;3043;42.682;23.376;2023-02-21T03:25:44;95193.53;;;6.13;100.00
6030;BME280;3043;42.682;23.376;2023-02-21T03:28:11;95187.53;;;6.14;100.00
6030;BME280;3043;42.682;23.376;2023-02-21T03:30:38;95188.44;;;6.04;100.00
6030;BME280;3043;42.682;23.376;2023-02-21T03:33:05;95182.47;;;5.99;100.00
6030;BME280;3043;42.682;23.376;2023-02-21T03:35:31;95181.63;;;6.00;100.00
6030;BME280;3043;42.682;23.376;2023-02-21T03:37:57;95179.91;;;5.93;100.00
6030;BME280;3043;42.682;23.376;2023-02-21T03:40:26;95191.94;;;5.89;100.00
6030;BME280;3043;42.682;23.376;2023-02-21T03:42:54;95187.59;;;6.00;100.00
6030;BME280;3043;42.682;23.376;2023-02-21T03:45:20;95191.00;;;6.10;100.00
6030;BME280;3043;42.682;23.376;2023-02-21T03:47:46;95191.84;;;6.12;100.00
6030;BME280;3043;42.682;23.376;2023-02-21T03:50:12;95178.13;;;6.10;100.00
6030;BME280;3043;42.682;23.376;2023-02-21T03:52:37;95191.84;;;6.09;100.00
6030;BME280;3043;42.682;23.376;2023-02-21T03:55:03;95196.13;;;6.07;100.00
6030;BME280;3043;42.682;23.376;2023-02-21T03:57:29;95195.25;;;6.14;100.00
6030;BME280;3043;42.682;23.376;2023-02-21T03:59:54;95202.97;;;6.11;100.00
6030;BME280;3043;42.682;23.376;2023-02-21T04:02:20;95203.84;;;6.07;100.00
6030;BME280;3043;42.682;23.376;2023-02-21T04:04:45;95212.44;;;6.06;100.00
6030;BME280;3043;42.682;23.376;2023-02-21T04:07:13;95200.47;;;5.93;100.00
6030;BME280;3043;42.682;23.376;2023-02-21T04:09:39;95209.91;;;5.95;100.00
6030;BME280;3043;42.682;23.376;2023-02-21T04:12:05;95208.16;;;5.96;100.00
6030;BME280;3043;42.682;23.376;2023-02-21T04:14:31;95203.91;;;5.96;100.00
6030;BME280;3043;42.682;23.376;2023-02-21T04:16:56;95213.28;;;5.99;100.00
6030;BME280;3043;42.682;23.376;2023-02-21T04:19:21;95215.84;;;5.99;100.00
6030;BME280;3043;42.682;23.376;2023-02-21T04:21:47;95211.63;;;5.90;100.00
6030;BME280;3043;42.682;23.376;2023-02-21T04:24:12;95214.22;;;5.86;100.00
6030;BME280;3043;42.682;23.376;2023-02-21T04:26:38;95215.91;;;5.84;100.00
6030;BME280;3043;42.682;23.376;2023-02-21T04:29:04;95219.34;;;5.77;100.00
6030;BME280;3043;42.682;23.376;2023-02-21T04:31:29;95231.31;;;5.78;100.00
6030;BME280;3043;42.682;23.376;2023-02-21T04:33:56;95228.75;;;5.76;100.00
6030;BME280;3043;42.682;23.376;2023-02-21T04:36:22;95236.44;;;5.78;100.00
6030;BME280;3043;42.682;23.376;2023-02-21T04:38:47;95239.91;;;5.71;100.00
6030;BME280;3043;42.682;23.376;2023-02-21T04:41:15;95237.41;;;5.39;100.00
6030;BME280;3043;42.682;23.376;2023-02-21T04:43:42;95231.41;;;5.35;100.00
6030;BME280;3043;42.682;23.376;2023-02-21T04:46:08;95224.56;;;5.28;100.00
6030;BME280;3043;42.682;23.376;2023-02-21T04:48:33;95212.59;;;5.11;100.00
6030;BME280;3043;42.682;23.376;2023-02-21T04:50:59;95221.13;;;5.29;100.00
6030;BME280;3043;42.682;23.376;2023-02-21T04:53:24;95219.44;;;5.22;100.00
6030;BME280;3043;42.682;23.376;2023-02-21T04:55:50;95214.31;;;5.25;100.00
6030;BME280;3043;42.682;23.376;2023-02-21T04:58:15;95210.84;;;5.44;100.00
6030;BME280;3043;42.682;23.376;2023-02-21T05:00:41;95204.88;;;5.38;100.00
6030;BME280;3043;42.682;23.376;2023-02-21T05:03:06;95206.63;;;5.27;100.00
6030;BME280;3043;42.682;23.376;2023-02-21T05:05:32;95202.31;;;5.36;100.00
6030;BME280;3043;42.682;23.376;2023-02-21T05:07:57;95190.31;;;5.40;100.00
6030;BME280;3043;42.682;23.376;2023-02-21T05:10:22;95188.63;;;5.46;100.00
6030;BME280;3043;42.682;23.376;2023-02-21T05:12:48;95192.03;;;5.38;100.00
6030;BME280;3043;42.682;23.376;2023-02-21T05:15:13;95189.47;;;5.39;100.00
6030;BME280;3043;42.682;23.376;2023-02-21T05:17:39;95188.63;;;5.40;100.00
6030;BME280;3043;42.682;23.376;2023-02-21T05:20:05;95190.31;;;5.49;100.00
6030;BME280;3043;42.682;23.376;2023-02-21T05:22:38;95188.59;;;5.59;100.00
6030;BME280;3043;42.682;23.376;2023-02-21T05:25:15;95188.56;;;5.65;100.00
6030;BME280;3043;42.682;23.376;2023-02-21T05:27:41;95200.50;;;5.78;100.00
6030;BME280;3043;42.682;23.376;2023-02-21T05:30:07;95193.66;;;5.86;100.00
6030;BME280;3043;42.682;23.376;2023-02-21T05:32:33;95194.53;;;5.88;100.00
6030;BME280;3043;42.682;23.376;2023-02-21T05:34:59;95199.66;;;5.85;100.00
6030;BME280;3043;42.682;23.376;2023-02-21T05:37:24;95197.09;;;5.88;100.00
6030;BME280;3043;42.682;23.376;2023-02-21T05:39:50;95193.66;;;5.89;100.00
6030;BME280;3043;42.682;23.376;2023-02-21T05:42:16;95202.13;;;6.09;100.00
6030;BME280;3043;42.682;23.376;2023-02-21T05:44:45;95203.56;;;6.61;100.00
6030;BME280;3043;42.682;23.376;2023-02-21T05:47:12;95203.09;;;7.24;100.00
6030;BME280;3043;42.682;23.376;2023-02-21T05:49:38;95205.19;;;7.74;100.00
6030;BME280;3043;42.682;23.376;2023-02-21T05:52:04;95208.91;;;8.27;100.00
6030;BME280;3043;42.682;23.376;2023-02-21T05:54:29;95209.66;;;8.97;100.00
6030;BME280;3043;42.682;23.376;2023-02-21T05:56:55;95210.34;;;9.59;100.00
6030;BME280;3043;42.682;23.376;2023-02-21T05:59:21;95219.72;;;10.13;100.00
6030;BME280;3043;42.682;23.376;2023-02-21T06:01:48;95219.91;;;10.86;100.00
6030;BME280;3043;42.682;23.376;2023-02-21T06:04:14;95212.63;;;11.73;97.96
6030;BME280;3043;42.682;23.376;2023-02-21T06:06:40;95219.94;;;12.23;90.64
6030;BME280;3043;42.682;23.376;2023-02-21T06:09:06;95219.91;;;12.85;84.44
6030;BME280;3043;42.682;23.376;2023-02-21T06:11:33;95220.69;;;13.43;77.70
6030;BME280;3043;42.682;23.376;2023-02-21T06:14:00;95219.00;;;14.19;70.81
6030;BME280;3043;42.682;23.376;2023-02-21T06:16:31;95222.59;;;14.87;66.29
6030;BME280;3043;42.682;23.376;2023-02-21T06:18:57;95226.84;;;15.34;61.69
6030;BME280;3043;42.682;23.376;2023-02-21T06:21:23;95218.34;;;15.94;58.54
6030;BME280;3043;42.682;23.376;2023-02-21T06:23:49;95225.75;;;16.25;55.47
6030;BME280;3043;42.682;23.376;2023-02-21T06:26:15;95219.59;;;16.66;53.79
6030;BME280;3043;42.682;23.376;2023-02-21T06:28:41;95220.19;;;16.72;52.11
6030;BME280;3043;42.682;23.376;2023-02-21T06:31:06;95230.94;;;17.22;50.40
6030;BME280;3043;42.682;23.376;2023-02-21T06:33:32;95232.06;;;17.35;49.05
6030;BME280;3043;42.682;23.376;2023-02-21T06:36:05;95233.75;;;17.73;48.23
6030;BME280;3043;42.682;23.376;2023-02-21T06:38:31;95224.72;;;18.14;46.48
6030;BME280;3043;42.682;23.376;2023-02-21T06:40:56;95229.56;;;18.73;44.83
6030;BME280;3043;42.682;23.376;2023-02-21T06:43:21;95229.91;;;18.82;43.66
6030;BME280;3043;42.682;23.376;2023-02-21T06:45:47;95239.63;;;19.13;42.83
6030;BME280;3043;42.682;23.376;2023-02-21T06:48:16;95243.16;;;19.44;42.04
6030;BME280;3043;42.682;23.376;2023-02-21T06:50:41;95240.91;;;19.70;41.51
6030;BME280;3043;42.682;23.376;2023-02-21T06:53:07;95233.69;;;20.34;40.13
6030;BME280;3043;42.682;23.376;2023-02-21T06:55:32;95239.25;;;20.87;39.16
6030;BME280;3043;42.682;23.376;2023-02-21T06:57:58;95234.31;;;21.65;36.83
6030;BME280;3043;42.682;23.376;2023-02-21T07:00:23;95239.06;;;20.90;37.43
6030;BME280;3043;42.682;23.376;2023-02-21T07:02:51;95243.13;;;21.09;37.14
6030;BME280;3043;42.682;23.376;2023-02-21T07:05:17;95238.09;;;20.77;37.15
6030;BME280;3043;42.682;23.376;2023-02-21T07:07:42;95234.88;;;20.58;37.64
6030;BME280;3043;42.682;23.376;2023-02-21T07:10:08;95241.13;;;20.85;37.32
6030;BME280;3043;42.682;23.376;2023-02-21T07:12:34;95239.56;;;20.53;37.08
6030;BME280;3043;42.682;23.376;2023-02-21T07:14:59;95240.41;;;20.53;36.95
6030;BME280;3043;42.682;23.376;2023-02-21T07:17:24;95246.53;;;20.54;37.77
6030;BME280;3043;42.682;23.376;2023-02-21T07:19:50;95243.16;;;20.80;36.96
6030;BME280;3043;42.682;23.376;2023-02-21T07:22:15;95240.94;;;20.88;37.08
6030;BME280;3043;42.682;23.376;2023-02-21T07:24:43;95234.84;;;19.99;37.39
6030;BME280;3043;42.682;23.376;2023-02-21T07:27:08;95238.00;;;19.74;38.73
6030;BME280;3043;42.682;23.376;2023-02-21T07:29:34;95221.41;;;19.42;39.05
6030;BME280;3043;42.682;23.376;2023-02-21T07:31:59;95221.50;;;19.08;39.51
6030;BME280;3043;42.682;23.376;2023-02-21T07:34:25;95225.16;;;18.73;40.43
6030;BME280;3043;42.682;23.376;2023-02-21T07:36:50;95222.81;;;18.84;40.99
6030;BME280;3043;42.682;23.376;2023-02-21T07:39:16;95208.13;;;18.97;40.08
6030;BME280;3043;42.682;23.376;2023-02-21T07:41:41;95218.94;;;18.91;40.45
6030;BME280;3043;42.682;23.376;2023-02-21T07:44:07;95205.94;;;19.05;40.18
6030;BME280;3043;42.682;23.376;2023-02-21T07:46:32;95212.78;;;19.56;39.45
6030;BME280;3043;42.682;23.376;2023-02-21T07:49:00;95206.53;;;18.28;41.01
6030;BME280;3043;42.682;23.376;2023-02-21T07:51:27;95200.97;;;18.34;41.23
6030;BME280;3043;42.682;23.376;2023-02-21T07:53:54;95202.97;;;18.29;41.10
6030;BME280;3043;42.682;23.376;2023-02-21T07:56:19;95199.28;;;17.99;41.48
6030;BME280;3043;42.682;23.376;2023-02-21T07:58:45;95195.81;;;18.67;40.72
6030;BME280;3043;42.682;23.376;2023-02-21T08:01:10;95194.81;;;17.84;41.59
6030;BME280;3043;42.682;23.376;2023-02-21T08:03:35;95184.69;;;16.67;44.07
6030;BME280;3043;42.682;23.376;2023-02-21T08:06:02;95199.81;;;16.79;44.38
6030;BME280;3043;42.682;23.376;2023-02-21T08:08:28;95182.69;;;16.33;45.62
6030;BME280;3043;42.682;23.376;2023-02-21T08:10:53;95190.56;;;16.13;45.95
6030;BME280;3043;42.682;23.376;2023-02-21T08:13:19;95178.47;;;15.49;48.53
6030;BME280;3043;42.682;23.376;2023-02-21T08:15:44;95184.97;;;15.39;49.05
6030;BME280;3043;42.682;23.376;2023-02-21T08:18:21;95180.78;;;15.56;49.46
6030;BME280;3043;42.682;23.376;2023-02-21T08:20:51;95182.22;;;15.20;53.59
6030;BME280;3043;42.682;23.376;2023-02-21T08:23:17;95180.50;;;15.19;52.36
6030;BME280;3043;42.682;23.376;2023-02-21T08:25:44;95186.44;;;15.01;51.66
6030;BME280;3043;42.682;23.376;2023-02-21T08:28:11;95189.47;;;15.12;52.31
6030;BME280;3043;42.682;23.376;2023-02-21T08:30:36;95185.25;;;15.10;52.96
6030;BME280;3043;42.682;23.376;2023-02-21T08:33:02;95178.34;;;15.52;52.83
6030;BME280;3043;42.682;23.376;2023-02-21T08:35:27;95175.50;;;15.99;50.00
6030;BME280;3043;42.682;23.376;2023-02-21T08:37:53;95178.84;;;16.01;49.95
6030;BME280;3043;42.682;23.376;2023-02-21T08:40:27;95172.72;;;16.23;49.08
6030;BME280;3043;42.682;23.376;2023-02-21T08:42:53;95169.97;;;16.26;48.12
6030;BME280;3043;42.682;23.376;2023-02-21T08:45:20;95169.88;;;16.09;48.85
6030;BME280;3043;42.682;23.376;2023-02-21T08:47:46;95170.56;;;16.12;49.11
6030;BME280;3043;42.682;23.376;2023-02-21T08:50:12;95175.47;;;16.20;49.54
6030;BME280;3043;42.682;23.376;2023-02-21T08:52:38;95170.75;;;16.28;49.88
6030;BME280;3043;42.682;23.376;2023-02-21T08:55:05;95170.72;;;16.68;48.67
6030;BME280;3043;42.682;23.376;2023-02-21T08:57:30;95167.34;;;16.66;48.97
6030;BME280;3043;42.682;23.376;2023-02-21T08:59:56;95159.06;;;17.12;48.01
6030;BME280;3043;42.682;23.376;2023-02-21T09:02:23;95164.84;;;17.73;46.38
6030;BME280;3043;42.682;23.376;2023-02-21T09:04:56;95162.31;;;18.05;45.75
6030;BME280;3043;42.682;23.376;2023-02-21T09:07:22;95155.97;;;18.26;44.50
6030;BME280;3043;42.682;23.376;2023-02-21T09:09:47;95152.72;;;18.55;44.12
6030;BME280;3043;42.682;23.376;2023-02-21T09:12:13;95151.69;;;18.90;43.13
6030;BME280;3043;42.682;23.376;2023-02-21T09:14:40;95150.25;;;19.00;42.75
6030;BME280;3043;42.682;23.376;2023-02-21T09:17:09;95147.72;;;19.14;41.99
6030;BME280;3043;42.682;23.376;2023-02-21T09:19:35;95145.34;;;19.25;41.88
6030;BME280;3043;42.682;23.376;2023-02-21T09:22:00;95146.38;;;19.38;41.56
6030;BME280;3043;42.682;23.376;2023-02-21T09:24:29;95145.69;;;19.51;41.58
6030;BME280;3043;42.682;23.376;2023-02-21T09:26:56;95142.66;;;19.88;41.61
6030;BME280;3043;42.682;23.376;2023-02-21T09:29:28;95144.38;;;20.03;40.72
6030;BME280;3043;42.682;23.376;2023-02-21T09:31:54;95148.94;;;20.15;40.82
6030;BME280;3043;42.682;23.376;2023-02-21T09:34:20;95133.31;;;20.83;40.26
6030;BME280;3043;42.682;23.376;2023-02-21T09:36:47;95130.41;;;21.83;38.64
6030;BME280;3043;42.682;23.376;2023-02-21T09:39:13;95131.38;;;22.46;36.69
6030;BME280;3043;42.682;23.376;2023-02-21T09:41:39;95124.81;;;23.02;35.88
6030;BME280;3043;42.682;23.376;2023-02-21T09:44:12;95123.13;;;23.01;35.03
6030;BME280;3043;42.682;23.376;2023-02-21T09:46:41;95116.22;;;23.24;34.58
6030;BME280;3043;42.682;23.376;2023-02-21T09:49:23;95125.25;;;23.45;33.78
6030;BME280;3043;42.682;23.376;2023-02-21T09:51:50;95107.53;;;23.58;33.35
6030;BME280;3043;42.682;23.376;2023-02-21T09:54:35;95105.22;;;24.24;32.78
6030;BME280;3043;42.682;23.376;2023-02-21T09:57:04;95107.81;;;24.59;31.71
6030;BME280;3043;42.682;23.376;2023-02-21T09:59:31;95105.09;;;24.71;31.24
6030;BME280;3043;42.682;23.376;2023-02-21T10:07:17;95091.84;;;25.04;31.68
6030;BME280;3043;42.682;23.376;2023-02-21T10:12:32;95072.47;;;25.68;30.95
6030;BME280;3043;42.682;23.376;2023-02-21T10:15:24;95083.13;;;26.21;29.76
6030;BME280;3043;42.682;23.376;2023-02-21T10:20:45;95071.13;;;26.47;28.77
6030;BME280;3043;42.682;23.376;2023-02-21T10:23:24;95063.53;;;26.83;28.38
6030;BME280;3043;42.682;23.376;2023-02-21T10:25:56;95057.09;;;26.35;29.42
6030;BME280;3043;42.682;23.376;2023-02-21T10:28:25;95056.25;;;26.35;28.94
6030;BME280;3043;42.682;23.376;2023-02-21T10:30:54;95056.72;;;26.40;28.50
6030;BME280;3043;42.682;23.376;2023-02-21T10:33:21;95050.31;;;26.63;28.52
6030;BME280;3043;42.682;23.376;2023-02-21T10:35:47;95054.38;;;26.46;27.85
6030;BME280;3043;42.682;23.376;2023-02-21T10:38:18;95047.97;;;26.07;28.22
6030;BME280;3043;42.682;23.376;2023-02-21T10:43:30;95025.13;;;25.21;29.11
6030;BME280;3043;42.682;23.376;2023-02-21T10:45:58;95023.09;;;24.92;29.72
6030;BME280;3043;42.682;23.376;2023-02-21T10:48:27;95019.81;;;25.32;29.04
6030;BME280;3043;42.682;23.376;2023-02-21T10:51:10;95010.59;;;25.79;28.80
6030;BME280;3043;42.682;23.376;2023-02-21T10:53:38;95014.16;;;26.21;28.50
6030;BME280;3043;42.682;23.376;2023-02-21T10:58:47;95006.47;;;26.78;27.50
6030;BME280;3043;42.682;23.376;2023-02-21T11:01:35;94999.22;;;26.80;27.77
6030;BME280;3043;42.682;23.376;2023-02-21T11:04:06;94986.84;;;26.99;24.97
6030;BME280;3043;42.682;23.376;2023-02-21T11:06:59;94992.56;;;26.65;24.24
6030;BME280;3043;42.682;23.376;2023-02-21T11:12:01;94972.91;;;25.44;24.52
6030;BME280;3043;42.682;23.376;2023-02-21T11:14:28;94973.41;;;25.69;24.53
6030;BME280;3043;42.682;23.376;2023-02-21T11:17:12;94971.56;;;25.49;25.23
6030;BME280;3043;42.682;23.376;2023-02-21T11:22:11;94964.06;;;25.54;25.23
6030;BME280;3043;42.682;23.376;2023-02-21T11:25:16;94953.31;;;25.35;25.26
6030;BME280;3043;42.682;23.376;2023-02-21T11:27:44;94955.34;;;24.89;25.82
6030;BME280;3043;42.682;23.376;2023-02-21T11:30:22;94945.53;;;24.69;25.79
6030;BME280;3043;42.682;23.376;2023-02-21T11:32:49;94950.81;;;24.36;25.72
6030;BME280;3043;42.682;23.376;2023-02-21T11:38:00;94907.84;;;23.88;26.28
6030;BME280;3043;42.682;23.376;2023-02-21T11:40:41;94940.16;;;23.70;26.48
6030;BME280;3043;42.682;23.376;2023-02-21T11:48:32;94923.22;;;23.27;26.89
6030;BME280;3043;42.682;23.376;2023-02-21T11:51:03;94909.78;;;23.30;26.78
6030;BME280;3043;42.682;23.376;2023-02-21T11:53:36;94919.56;;;22.69;27.33
6030;BME280;3043;42.682;23.376;2023-02-21T12:01:32;94899.59;;;22.29;28.89
6030;BME280;3043;42.682;23.376;2023-02-21T12:09:22;94881.06;;;22.54;28.55
6030;BME280;3043;42.682;23.376;2023-02-21T12:20:24;94857.41;;;21.93;29.19
6030;BME280;3043;42.682;23.376;2023-02-21T12:39:49;94837.47;;;21.14;30.63
6030;BME280;3043;42.682;23.376;2023-02-21T12:44:32;94834.75;;;21.28;31.16
6030;BME280;3043;42.682;23.376;2023-02-21T12:47:08;94827.38;;;21.33;30.50
6030;BME280;3043;42.682;23.376;2023-02-21T12:52:19;94824.41;;;21.50;30.15
6030;BME280;3043;42.682;23.376;2023-02-21T12:54:47;94813.25;;;21.59;29.93
6030;BME280;3043;42.682;23.376;2023-02-21T12:57:21;94814.94;;;21.60;30.27
6030;BME280;3043;42.682;23.376;2023-02-21T13:05:12;94819.34;;;21.35;30.38
6030;BME280;3043;42.682;23.376;2023-02-21T13:07:52;94811.16;;;21.52;30.36
6030;BME280;3043;42.682;23.376;2023-02-21T13:10:24;94812.59;;;21.68;29.89
6030;BME280;3043;42.682;23.376;2023-02-21T13:13:00;94815.44;;;21.53;30.51
6030;BME280;3043;42.682;23.376;2023-02-21T13:15:29;94799.16;;;21.35;30.64
6030;BME280;3043;42.682;23.376;2023-02-21T13:18:03;94801.81;;;21.10;30.70
6030;BME280;3043;42.682;23.376;2023-02-21T13:20:35;94806.09;;;21.11;30.57
6030;BME280;3043;42.682;23.376;2023-02-21T13:29:25;94792.34;;;20.68;31.28
6030;BME280;3043;42.682;23.376;2023-02-21T13:31:59;94787.31;;;20.78;31.17
6030;BME280;3043;42.682;23.376;2023-02-21T13:34:28;94788.72;;;20.96;31.30
6030;BME280;3043;42.682;23.376;2023-02-21T13:37:00;94783.75;;;21.04;31.55
6030;BME280;3043;42.682;23.376;2023-02-21T13:39:33;94791.34;;;20.96;31.05
6030;BME280;3043;42.682;23.376;2023-02-21T13:44:43;94786.38;;;20.40;31.42
6030;BME280;3043;42.682;23.376;2023-02-21T13:47:20;94784.56;;;20.40;31.50
6030;BME280;3043;42.682;23.376;2023-02-21T13:49:53;94778.53;;;20.26;31.80
6030;BME280;3043;42.682;23.376;2023-02-21T13:57:44;94774.97;;;19.86;32.08
6030;BME280;3043;42.682;23.376;2023-02-21T14:13:37;94762.25;;;19.80;32.66
6030;BME280;3043;42.682;23.376;2023-02-21T14:18:44;94766.03;;;19.62;32.68
6030;BME280;3043;42.682;23.376;2023-02-21T14:24:10;94759.59;;;19.39;32.18
6030;BME280;3043;42.682;23.376;2023-02-21T14:37:14;94750.97;;;19.37;31.67
6030;BME280;3043;42.682;23.376;2023-02-21T14:39:45;94746.84;;;19.33;31.75
6030;BME280;3043;42.682;23.376;2023-02-21T14:42:38;94744.63;;;19.27;31.92
6030;BME280;3043;42.682;23.376;2023-02-21T14:56:19;94756.56;;;19.17;31.54
6030;BME280;3043;42.682;23.376;2023-02-21T15:09:40;94751.88;;;19.08;31.83
6030;BME280;3043;42.682;23.376;2023-02-21T15:12:14;94747.00;;;18.88;32.12
6030;BME280;3043;42.682;23.376;2023-02-21T15:14:47;94752.06;;;18.91;32.25
6030;BME280;3043;42.682;23.376;2023-02-21T15:17:20;94751.50;;;18.86;32.15
6030;BME280;3043;42.682;23.376;2023-02-21T15:19:46;94756.66;;;18.88;32.20
6030;BME280;3043;42.682;23.376;2023-02-21T15:22:25;94747.66;;;18.78;32.27
6030;BME280;3043;42.682;23.376;2023-02-21T15:27:32;94757.78;;;18.70;32.43
6030;BME280;3043;42.682;23.376;2023-02-21T15:30:13;94752.03;;;18.63;32.44
6030;BME280;3043;42.682;23.376;2023-02-21T15:32:41;94759.94;;;18.48;32.55
6030;BME280;3043;42.682;23.376;2023-02-21T15:35:13;94765.09;;;18.49;32.59
6030;BME280;3043;42.682;23.376;2023-02-21T15:37:44;94762.25;;;18.38;32.68
6030;BME280;3043;42.682;23.376;2023-02-21T15:40:17;94768.94;;;18.28;32.54
6030;BME280;3043;42.682;23.376;2023-02-21T15:42:45;94775.59;;;18.04;32.96
6030;BME280;3043;42.682;23.376;2023-02-21T15:47:47;94771.66;;;17.66;33.33
6030;BME280;3043;42.682;23.376;2023-02-21T15:50:40;94773.50;;;17.64;33.26
6030;BME280;3043;42.682;23.376;2023-02-21T15:53:17;94772.00;;;17.60;33.37
6030;BME280;3043;42.682;23.376;2023-02-21T15:55:44;94766.19;;;17.38;33.68
6030;BME280;3043;42.682;23.376;2023-02-21T15:58:26;94773.47;;;17.33;34.08
6030;BME280;3043;42.682;23.376;2023-02-21T16:01:06;94765.50;;;17.19;34.11
6030;BME280;3043;42.682;23.376;2023-02-21T16:08:33;94770.50;;;16.91;34.63
6030;BME280;3043;42.682;23.376;2023-02-21T16:11:02;94773.59;;;16.82;34.93
6030;BME280;3043;42.682;23.376;2023-02-21T16:13:37;94784.09;;;16.65;35.16
6030;BME280;3043;42.682;23.376;2023-02-21T16:16:03;94786.25;;;16.57;35.29
6030;BME280;3043;42.682;23.376;2023-02-21T16:18:29;94784.00;;;16.49;35.31
6030;BME280;3043;42.682;23.376;2023-02-21T16:21:04;94786.84;;;16.45;35.35
6030;BME280;3043;42.682;23.376;2023-02-21T16:23:33;94778.34;;;16.23;35.91
6030;BME280;3043;42.682;23.376;2023-02-21T16:26:22;94788.34;;;16.15;35.99
6030;BME280;3043;42.682;23.376;2023-02-21T16:28:57;94781.13;;;16.20;36.00
6030;BME280;3043;42.682;23.376;2023-02-21T16:31:27;94783.13;;;16.15;36.22
6030;BME280;3043;42.682;23.376;2023-02-21T16:33:53;94782.56;;;16.08;36.14
6030;BME280;3043;42.682;23.376;2023-02-21T16:36:23;94793.16;;;16.05;36.19
6030;BME280;3043;42.682;23.376;2023-02-21T16:38:49;94788.50;;;16.12;36.17
6030;BME280;3043;42.682;23.376;2023-02-21T16:41:15;94793.31;;;16.02;36.42
6030;BME280;3043;42.682;23.376;2023-02-21T16:43:40;94803.06;;;15.98;36.32
6030;BME280;3043;42.682;23.376;2023-02-21T16:46:06;94799.84;;;15.93;36.58
6030;BME280;3043;42.682;23.376;2023-02-21T16:48:32;94805.97;;;15.92;36.70